createdAt,value
2022-07-29T00:02:03.176Z,86.52
2022-07-29T00:04:36.667Z,87.10
2022-07-29T00:07:09.756Z,87.54
2022-07-29T00:09:51.902Z,87.76
2022-07-29T00:12:27.093Z,87.74
2022-07-29T00:15:00.098Z,88.02
2022-07-29T00:17:34.981Z,88.07
2022-07-29T00:20:09.448Z,88.00
2022-07-29T00:22:42.539Z,88.57
2022-07-29T00:25:17.266Z,88.81
2022-07-29T00:27:50.310Z,89.20
2022-07-29T00:30:24.105Z,88.95
2022-07-29T00:32:57.068Z,89.12
2022-07-29T00:35:47.375Z,89.06
2022-07-29T00:38:21.930Z,89.22
2022-07-29T00:40:56.101Z,89.66
2022-07-29T00:43:29.181Z,89.92
2022-07-29T00:46:02.295Z,89.70
2022-07-29T00:48:35.294Z,89.88
2022-07-29T00:51:11.159Z,89.81
2022-07-29T00:53:44.408Z,89.72
2022-07-29T00:56:19.265Z,89.30
2022-07-29T00:58:53.497Z,89.29
2022-07-29T01:01:26.741Z,89.40
2022-07-29T01:03:59.728Z,89.28
2022-07-29T01:06:32.787Z,89.09
2022-07-29T01:09:05.981Z,88.17
2022-07-29T01:11:41.556Z,87.65
2022-07-29T01:14:15.429Z,88.16
2022-07-29T01:16:53.582Z,87.97
2022-07-29T01:19:47.119Z,87.52
2022-07-29T01:22:43.543Z,87.51
2022-07-29T01:25:42.245Z,87.68
2022-07-29T01:28:51.251Z,87.69
2022-07-29T01:31:33.900Z,87.92
2022-07-29T01:34:18.784Z,87.38
2022-07-29T01:36:57.315Z,87.68
2022-07-29T01:39:33.665Z,87.59
2022-07-29T01:42:14.677Z,87.52
2022-07-29T01:44:56.574Z,87.23
2022-07-29T01:47:35.824Z,87.25
2022-07-29T01:50:12.532Z,87.38
2022-07-29T01:52:51.501Z,87.14
2022-07-29T01:55:29.039Z,87.31
2022-07-29T01:58:04.971Z,87.58
2022-07-29T02:00:41.131Z,87.66
2022-07-29T02:03:20.707Z,87.52
2022-07-29T02:05:55.016Z,87.67
2022-07-29T02:08:30.190Z,87.26
2022-07-29T02:11:05.561Z,88.17
2022-07-29T02:13:39.809Z,88.23
2022-07-29T02:16:15.390Z,87.77
2022-07-29T02:18:51.481Z,87.86
2022-07-29T02:21:27.053Z,87.56
2022-07-29T02:24:02.927Z,87.86
2022-07-29T02:26:36.126Z,87.75
2022-07-29T02:29:11.748Z,87.65
2022-07-29T02:31:48.293Z,87.34
2022-07-29T02:34:23.032Z,87.90
2022-07-29T02:36:57.753Z,88.16
2022-07-29T02:39:32.315Z,88.37
2022-07-29T02:42:09.162Z,88.47
2022-07-29T02:44:42.530Z,88.48
2022-07-29T02:47:20.308Z,88.52
2022-07-29T02:49:57.259Z,88.47
2022-07-29T02:52:37.021Z,88.61
2022-07-29T02:55:17.080Z,88.58
2022-07-29T02:57:56.350Z,89.10
2022-07-29T03:00:30.941Z,89.37
2022-07-29T03:03:14.317Z,89.49
2022-07-29T03:05:47.870Z,89.36
2022-07-29T03:08:20.930Z,89.53
2022-07-29T03:10:55.707Z,89.78
2022-07-29T03:13:29.749Z,89.19
2022-07-29T03:16:03.938Z,89.52
2022-07-29T03:18:39.416Z,89.72
2022-07-29T03:21:12.669Z,90.22
2022-07-29T03:23:46.326Z,90.05
2022-07-29T03:26:20.961Z,89.84
2022-07-29T03:28:59.104Z,89.78
2022-07-29T03:31:33.516Z,90.47
2022-07-29T03:34:07.958Z,90.32
2022-07-29T03:36:41.148Z,90.10
2022-07-29T03:39:19.152Z,89.62
2022-07-29T03:41:57.167Z,89.75
2022-07-29T03:44:30.993Z,89.83
2022-07-29T03:47:06.204Z,90.09
2022-07-29T03:49:42.701Z,89.98
2022-07-29T03:52:15.892Z,89.31
2022-07-29T03:54:49.871Z,90.01
2022-07-29T03:57:26.777Z,89.33
2022-07-29T04:00:07.185Z,89.12
2022-07-29T04:02:41.133Z,88.97
2022-07-29T04:05:16.351Z,89.13
2022-07-29T04:07:50.672Z,88.43
2022-07-29T04:10:30.603Z,88.68
2022-07-29T04:13:05.360Z,88.82
2022-07-29T04:15:38.286Z,88.88
2022-07-29T04:18:11.315Z,88.06
2022-07-29T04:20:45.981Z,88.35
2022-07-29T04:23:19.003Z,87.96
2022-07-29T04:25:51.831Z,87.99
2022-07-29T04:28:24.825Z,88.00
2022-07-29T04:30:57.838Z,88.00
2022-07-29T04:33:30.840Z,87.71
2022-07-29T04:36:05.889Z,87.65
2022-07-29T04:38:58.830Z,87.31
2022-07-29T04:41:32.980Z,87.18
2022-07-29T04:44:07.448Z,87.34
2022-07-29T04:46:41.863Z,87.40
2022-07-29T04:49:15.174Z,87.41
2022-07-29T04:51:49.504Z,87.52
2022-07-29T04:54:22.589Z,87.21
2022-07-29T04:56:55.516Z,86.60
2022-07-29T04:59:28.519Z,85.92
2022-07-29T05:02:01.572Z,86.01
2022-07-29T05:04:34.740Z,85.80
2022-07-29T05:07:09.017Z,85.66
2022-07-29T05:09:42.619Z,85.39
2022-07-29T05:12:15.620Z,85.31
2022-07-29T05:14:48.679Z,85.67
2022-07-29T05:17:21.856Z,85.40
2022-07-29T05:19:55.067Z,85.10
2022-07-29T05:22:29.506Z,85.65
2022-07-29T05:25:08.570Z,85.41
2022-07-29T05:27:42.013Z,84.96
2022-07-29T05:30:15.227Z,84.89
2022-07-29T05:32:48.355Z,84.76
2022-07-29T05:35:21.610Z,84.80
2022-07-29T05:37:55.887Z,84.33
2022-07-29T05:40:28.911Z,83.41
2022-07-29T05:43:01.957Z,82.85
2022-07-29T05:45:35.090Z,81.85
2022-07-29T05:48:23.014Z,81.99
2022-07-29T05:50:56.532Z,82.03
2022-07-29T05:53:30.856Z,82.68
2022-07-29T05:56:06.356Z,82.41
2022-07-29T05:58:39.242Z,82.38
2022-07-29T06:01:17.579Z,81.62
2022-07-29T06:03:51.209Z,81.47
2022-07-29T06:06:24.487Z,80.33
2022-07-29T06:08:58.627Z,78.93
2022-07-29T06:11:31.715Z,79.31
2022-07-29T06:14:04.895Z,78.90
2022-07-29T06:16:38.268Z,79.60
2022-07-29T06:19:11.239Z,79.56
2022-07-29T06:21:44.554Z,78.89
2022-07-29T06:24:19.416Z,77.66
2022-07-29T06:26:52.941Z,77.56
2022-07-29T06:29:25.837Z,76.53
2022-07-29T06:31:58.817Z,75.09
2022-07-29T06:34:31.863Z,74.99
2022-07-29T06:37:08.590Z,73.83
2022-07-29T06:40:09.941Z,72.99
2022-07-29T06:42:44.609Z,73.11
2022-07-29T06:45:21.155Z,72.48
2022-07-29T06:47:56.122Z,72.58
2022-07-29T06:50:29.009Z,73.12
2022-07-29T06:53:02.055Z,71.42
2022-07-29T06:55:37.900Z,70.51
2022-07-29T06:58:11.796Z,70.68
2022-07-29T07:00:44.620Z,70.55
2022-07-29T07:03:17.871Z,71.09
2022-07-29T07:05:51.110Z,70.55
2022-07-29T07:08:24.966Z,70.13
2022-07-29T07:10:59.221Z,71.28
2022-07-29T07:13:35.366Z,70.93
2022-07-29T07:16:10.115Z,70.38
2022-07-29T07:18:46.018Z,69.60
2022-07-29T07:21:19.660Z,69.30
2022-07-29T07:23:52.769Z,68.03
2022-07-29T07:26:27.361Z,68.23
2022-07-29T07:29:01.345Z,68.41
2022-07-29T07:31:34.424Z,69.42
2022-07-29T07:34:07.606Z,68.84
2022-07-29T07:36:41.135Z,68.45
2022-07-29T07:39:14.378Z,68.51
2022-07-29T07:41:48.964Z,67.42
2022-07-29T07:44:22.838Z,68.15
2022-07-29T07:46:56.657Z,67.00
2022-07-29T07:49:36.818Z,68.09
2022-07-29T07:52:09.711Z,68.02
2022-07-29T07:54:43.885Z,68.33
2022-07-29T07:57:18.727Z,67.03
2022-07-29T07:59:51.813Z,66.97
2022-07-29T08:02:49.564Z,67.32
2022-07-29T08:05:22.700Z,66.59
2022-07-29T08:07:55.890Z,66.61
2022-07-29T08:10:46.185Z,65.51
2022-07-29T08:13:22.469Z,65.34
2022-07-29T08:16:00.285Z,65.27
2022-07-29T08:18:33.563Z,64.82
2022-07-29T08:21:07.005Z,63.23
2022-07-29T08:23:46.439Z,62.95
2022-07-29T08:26:23.553Z,60.56
2022-07-29T08:28:58.160Z,58.60
2022-07-29T08:31:31.158Z,57.37
2022-07-29T08:34:04.511Z,51.61
2022-07-29T08:36:37.541Z,46.43
2022-07-29T08:39:14.588Z,41.53
2022-07-29T08:41:56.686Z,39.04
2022-07-29T08:44:33.464Z,35.76
2022-07-29T08:47:07.005Z,34.98
2022-07-29T08:49:40.051Z,35.12
2022-07-29T08:52:13.816Z,34.61
2022-07-29T08:54:47.875Z,33.66
2022-07-29T08:57:23.238Z,35.50
2022-07-29T09:00:06.461Z,36.54
2022-07-29T09:02:49.893Z,36.55
2022-07-29T09:05:24.208Z,34.40
2022-07-29T09:07:58.422Z,35.82
2022-07-29T09:10:32.412Z,39.44
2022-07-29T09:13:05.949Z,43.03
2022-07-29T09:15:40.296Z,45.93
2022-07-29T09:18:26.123Z,47.58
2022-07-29T09:21:23.109Z,48.32
2022-07-29T09:24:05.032Z,49.14
2022-07-29T09:26:39.621Z,51.09
2022-07-29T09:29:14.050Z,50.41
2022-07-29T09:31:50.642Z,48.52
2022-07-29T09:34:27.256Z,48.99
2022-07-29T09:37:00.556Z,49.40
2022-07-29T09:39:35.740Z,50.27
2022-07-29T09:42:08.732Z,50.60
2022-07-29T09:44:46.696Z,50.58
2022-07-29T09:47:22.741Z,50.39
2022-07-29T09:50:00.299Z,49.99
2022-07-29T09:52:33.498Z,48.60
2022-07-29T09:55:07.281Z,48.58
2022-07-29T09:57:40.221Z,49.28
2022-07-29T10:00:16.063Z,49.80
2022-07-29T10:02:50.490Z,48.42
2022-07-29T10:05:25.004Z,49.21
2022-07-29T10:07:59.425Z,48.29
2022-07-29T10:10:34.698Z,47.88
2022-07-29T10:13:15.016Z,48.18
2022-07-29T10:15:51.899Z,48.38
2022-07-29T10:18:26.443Z,46.92
2022-07-29T10:21:02.029Z,47.51
2022-07-29T10:23:46.720Z,47.43
2022-07-29T10:26:21.570Z,46.23
2022-07-29T10:28:54.483Z,46.58
2022-07-29T10:31:36.989Z,43.61
2022-07-29T10:34:18.903Z,44.18
2022-07-29T10:37:03.399Z,44.56
2022-07-29T10:39:52.010Z,44.87
2022-07-29T10:42:29.549Z,44.60
2022-07-29T10:45:08.632Z,45.66
2022-07-29T10:47:41.979Z,44.72
2022-07-29T10:50:17.202Z,45.28
2022-07-29T10:52:58.615Z,44.30
2022-07-29T10:55:37.644Z,44.36
2022-07-29T10:58:19.032Z,43.65
2022-07-29T11:00:53.605Z,43.78
2022-07-29T11:03:52.270Z,43.50
2022-07-29T11:07:04.043Z,44.86
2022-07-29T11:09:38.629Z,44.88
2022-07-29T11:12:45.127Z,44.53
2022-07-29T11:15:19.942Z,44.26
2022-07-29T11:18:06.418Z,43.91
2022-07-29T11:20:42.420Z,43.43
2022-07-29T11:23:33.509Z,43.84
2022-07-29T11:26:21.139Z,44.10
2022-07-29T11:28:59.764Z,44.42
2022-07-29T11:31:39.514Z,43.00
2022-07-29T11:34:27.804Z,42.31
2022-07-29T11:37:27.578Z,42.13
2022-07-29T11:40:26.826Z,41.72
2022-07-29T11:43:00.442Z,41.61
2022-07-29T11:45:48.131Z,42.09
2022-07-29T11:48:31.898Z,42.08
2022-07-29T11:51:14.439Z,42.20
2022-07-29T11:53:52.547Z,42.56
2022-07-29T11:56:32.272Z,43.39
2022-07-29T11:59:09.991Z,43.79
2022-07-29T12:02:06.826Z,42.13
2022-07-29T12:04:51.158Z,42.72
2022-07-29T12:07:33.785Z,41.62
2022-07-29T12:10:11.633Z,41.70
2022-07-29T12:12:54.629Z,41.40
2022-07-29T12:15:46.098Z,41.96
2022-07-29T12:18:24.260Z,40.89
2022-07-29T12:21:04.553Z,40.83
2022-07-29T12:23:38.213Z,40.53
2022-07-29T12:26:25.282Z,40.07
2022-07-29T12:28:59.919Z,40.15
2022-07-29T12:31:43.256Z,40.02
2022-07-29T12:34:18.139Z,39.40
2022-07-29T12:36:51.943Z,39.56
2022-07-29T12:39:27.476Z,39.16
2022-07-29T12:42:04.513Z,39.66
2022-07-29T12:44:50.615Z,39.92
2022-07-29T12:47:24.168Z,39.46
2022-07-29T12:50:11.007Z,39.44
2022-07-29T12:52:44.105Z,38.98
2022-07-29T12:55:17.367Z,39.60
2022-07-29T12:57:53.169Z,39.26
2022-07-29T13:00:27.491Z,39.39
2022-07-29T13:03:02.265Z,39.75
2022-07-29T13:05:48.564Z,40.35
2022-07-29T13:08:22.910Z,39.21
2022-07-29T13:10:56.175Z,37.67
2022-07-29T13:13:29.188Z,37.78
2022-07-29T13:16:09.833Z,37.11
2022-07-29T13:18:43.003Z,36.52
2022-07-29T13:21:18.893Z,36.20
2022-07-29T13:23:52.052Z,37.74
2022-07-29T13:26:25.036Z,40.86
2022-07-29T13:28:58.132Z,44.93
2022-07-29T13:31:32.420Z,45.44
2022-07-29T13:34:05.807Z,46.59
2022-07-29T13:36:41.560Z,47.20
2022-07-29T13:39:14.930Z,48.20
2022-07-29T13:41:47.821Z,47.83
2022-07-29T13:44:22.397Z,48.18
2022-07-29T13:46:56.768Z,48.21
2022-07-29T13:49:30.683Z,48.39
2022-07-29T13:52:04.239Z,49.69
2022-07-29T13:54:42.071Z,49.70
2022-07-29T13:57:16.009Z,50.34
2022-07-29T13:59:53.755Z,51.03
2022-07-29T14:02:28.501Z,50.82
2022-07-29T14:05:06.164Z,51.45
2022-07-29T14:07:41.164Z,51.96
2022-07-29T14:10:18.397Z,52.20
2022-07-29T14:12:52.836Z,52.51
2022-07-29T14:15:25.893Z,52.50
2022-07-29T14:18:05.357Z,52.63
2022-07-29T14:20:38.598Z,51.25
2022-07-29T14:23:11.447Z,51.57
2022-07-29T14:25:47.313Z,50.78
2022-07-29T14:28:24.922Z,50.63
2022-07-29T14:30:58.024Z,51.38
2022-07-29T14:33:32.249Z,51.88
2022-07-29T14:36:05.747Z,51.59
2022-07-29T14:38:39.575Z,51.86
2022-07-29T14:41:12.817Z,52.69
2022-07-29T14:43:45.679Z,52.98
2022-07-29T14:46:18.698Z,53.45
2022-07-29T14:48:53.029Z,52.56
2022-07-29T14:51:26.067Z,52.44
2022-07-29T14:54:05.703Z,53.21
2022-07-29T14:56:46.688Z,53.95
2022-07-29T14:59:20.307Z,53.43
2022-07-29T15:01:53.503Z,52.78
2022-07-29T15:04:27.811Z,53.15
2022-07-29T15:07:00.833Z,52.89
2022-07-29T15:09:40.083Z,52.39
2022-07-29T15:12:13.864Z,51.96
2022-07-29T15:14:46.892Z,51.63
2022-07-29T15:17:21.280Z,51.08
2022-07-29T15:19:55.552Z,51.03
2022-07-29T15:22:28.541Z,51.46
2022-07-29T15:25:01.478Z,51.55
2022-07-29T15:27:34.623Z,51.45
2022-07-29T15:30:08.625Z,51.18
2022-07-29T15:32:41.642Z,52.18
2022-07-29T15:35:17.904Z,52.85
2022-07-29T15:37:51.063Z,53.13
2022-07-29T15:40:23.985Z,53.08
2022-07-29T15:42:57.235Z,52.83
2022-07-29T15:45:32.539Z,53.61
2022-07-29T15:48:07.968Z,53.28
2022-07-29T15:50:42.398Z,53.17
2022-07-29T15:53:19.957Z,53.72
2022-07-29T15:55:52.894Z,53.79
2022-07-29T15:58:25.879Z,54.09
2022-07-29T16:01:03.869Z,53.68
2022-07-29T16:03:40.972Z,53.71
2022-07-29T16:06:17.598Z,54.10
2022-07-29T16:08:50.687Z,54.66
2022-07-29T16:11:23.701Z,55.10
2022-07-29T16:13:56.713Z,54.08
2022-07-29T16:16:29.819Z,54.11
2022-07-29T16:19:02.883Z,55.14
2022-07-29T16:21:37.516Z,53.72
2022-07-29T16:24:10.681Z,54.35
2022-07-29T16:26:43.872Z,54.40
2022-07-29T16:29:18.083Z,54.87
2022-07-29T16:31:51.332Z,55.38
2022-07-29T16:34:24.400Z,55.81
2022-07-29T16:36:59.063Z,56.04
2022-07-29T16:39:32.345Z,56.73
2022-07-29T16:42:05.670Z,56.98
2022-07-29T16:44:38.680Z,57.42
2022-07-29T16:47:11.987Z,58.10
2022-07-29T16:49:45.395Z,58.97
2022-07-29T16:52:20.751Z,59.38
2022-07-29T16:54:53.810Z,59.67
2022-07-29T16:57:27.795Z,59.90
2022-07-29T17:00:00.818Z,60.66
2022-07-29T17:02:33.693Z,60.75
2022-07-29T17:05:08.068Z,61.69
2022-07-29T17:07:43.444Z,61.46
2022-07-29T17:10:16.835Z,61.99
2022-07-29T17:12:49.833Z,62.15
2022-07-29T17:15:23.010Z,61.55
2022-07-29T17:17:56.702Z,61.66
2022-07-29T17:20:30.216Z,62.02
2022-07-29T17:23:04.566Z,61.82
2022-07-29T17:25:37.672Z,62.31
2022-07-29T17:28:10.515Z,62.60
2022-07-29T17:30:43.791Z,62.90
2022-07-29T17:33:16.681Z,63.25
2022-07-29T17:36:07.265Z,64.16
2022-07-29T17:38:41.615Z,64.70
2022-07-29T17:41:14.862Z,65.10
2022-07-29T17:43:47.926Z,64.69
2022-07-29T17:46:22.244Z,64.94
2022-07-29T17:48:55.763Z,64.60
2022-07-29T17:51:29.216Z,64.72
2022-07-29T17:54:03.811Z,64.75
2022-07-29T17:56:36.892Z,64.99
2022-07-29T17:59:10.251Z,64.68
2022-07-29T18:01:43.352Z,65.00
2022-07-29T18:04:20.170Z,65.05
2022-07-29T18:06:53.723Z,65.05
2022-07-29T18:09:28.320Z,65.33
2022-07-29T18:12:01.373Z,65.09
2022-07-29T18:14:35.105Z,65.19
2022-07-29T18:17:08.606Z,65.60
2022-07-29T18:19:41.693Z,65.82
2022-07-29T18:22:15.194Z,66.18
2022-07-29T18:24:49.505Z,66.31
2022-07-29T18:27:22.637Z,66.73
2022-07-29T18:29:55.872Z,66.75
2022-07-29T18:32:29.861Z,67.03
2022-07-29T18:35:05.057Z,67.53
2022-07-29T18:38:01.010Z,67.60
2022-07-29T18:40:33.253Z,68.23
2022-07-29T18:43:06.547Z,68.76
2022-07-29T18:45:39.801Z,69.14
2022-07-29T18:48:13.680Z,69.35
2022-07-29T18:50:46.808Z,69.82
2022-07-29T18:53:19.767Z,70.66
2022-07-29T18:55:58.536Z,70.96
2022-07-29T18:58:34.002Z,71.53
2022-07-29T19:01:06.882Z,71.95
2022-07-29T19:03:40.111Z,72.07
2022-07-29T19:06:13.407Z,72.46
2022-07-29T19:08:46.463Z,72.80
2022-07-29T19:11:20.785Z,73.77
2022-07-29T19:13:58.871Z,73.69
2022-07-29T19:16:31.964Z,74.53
2022-07-29T19:19:06.370Z,75.27
2022-07-29T19:21:39.417Z,75.47
2022-07-29T19:24:15.465Z,75.60
2022-07-29T19:26:50.067Z,76.21
2022-07-29T19:29:23.469Z,76.36
2022-07-29T19:32:01.442Z,76.11
2022-07-29T19:34:34.531Z,76.56
2022-07-29T19:37:07.575Z,77.06
2022-07-29T19:39:40.781Z,77.51
2022-07-29T19:42:15.079Z,77.89
2022-07-29T19:44:48.131Z,78.14
2022-07-29T19:47:21.081Z,78.39
2022-07-29T19:49:54.045Z,78.99
2022-07-29T19:52:27.192Z,78.78
2022-07-29T19:55:05.273Z,79.12
2022-07-29T19:57:42.061Z,79.66
2022-07-29T20:00:15.493Z,79.82
2022-07-29T20:02:48.530Z,79.94
2022-07-29T20:05:21.839Z,80.56
2022-07-29T20:08:01.082Z,80.59
2022-07-29T20:10:34.915Z,81.33
2022-07-29T20:13:09.164Z,81.65
2022-07-29T20:15:42.299Z,81.82
2022-07-29T20:18:15.633Z,81.98
2022-07-29T20:20:49.660Z,82.85
2022-07-29T20:23:23.214Z,83.49
2022-07-29T20:25:56.373Z,83.16
2022-07-29T20:28:31.036Z,84.17
2022-07-29T20:31:04.133Z,84.78
2022-07-29T20:33:38.748Z,85.51
2022-07-29T20:36:11.756Z,86.15
2022-07-29T20:38:44.873Z,86.89
2022-07-29T20:41:17.868Z,86.81
2022-07-29T20:43:52.747Z,87.67
2022-07-29T20:46:25.857Z,87.39
2022-07-29T20:48:58.985Z,87.71
2022-07-29T20:51:32.077Z,88.25
2022-07-29T20:54:16.795Z,88.12
2022-07-29T20:56:49.856Z,88.83
2022-07-29T20:59:24.216Z,89.29
2022-07-29T21:01:57.357Z,89.78
2022-07-29T21:04:30.688Z,90.23
2022-07-29T21:07:04.293Z,90.65
2022-07-29T21:09:37.458Z,90.97
2022-07-29T21:12:11.547Z,91.21
2022-07-29T21:14:49.284Z,91.70
2022-07-29T21:17:22.825Z,91.87
2022-07-29T21:19:55.724Z,92.11
2022-07-29T21:22:28.735Z,92.41
2022-07-29T21:25:01.786Z,92.75
2022-07-29T21:27:52.239Z,93.19
2022-07-29T21:30:26.532Z,93.83
2022-07-29T21:32:59.862Z,94.04
2022-07-29T21:36:10.267Z,94.49
2022-07-29T21:38:26.039Z,95.15
2022-07-29T21:40:58.938Z,95.11
2022-07-29T21:43:32.223Z,95.51
2022-07-29T21:46:06.686Z,95.56
2022-07-29T21:48:44.172Z,96.02
2022-07-29T21:51:17.525Z,96.37
2022-07-29T21:53:53.072Z,96.41
2022-07-29T21:56:27.799Z,96.98
2022-07-29T21:59:01.174Z,97.52
2022-07-29T22:01:39.367Z,98.09
2022-07-29T22:04:13.011Z,98.86
2022-07-29T22:06:46.028Z,98.98
2022-07-29T22:09:19.421Z,99.39
2022-07-29T22:11:52.567Z,99.82
2022-07-29T22:14:25.702Z,100.00
2022-07-29T22:17:00.345Z,100.00
2022-07-29T22:19:33.649Z,100.00
2022-07-29T22:22:06.607Z,100.00
2022-07-29T22:24:39.842Z,100.00
2022-07-29T22:27:13.182Z,100.00
2022-07-29T22:29:46.211Z,100.00
2022-07-29T22:32:20.655Z,100.00
2022-07-29T22:34:53.711Z,100.00
2022-07-29T22:37:26.738Z,100.00
2022-07-29T22:39:59.997Z,100.00
2022-07-29T22:42:33.069Z,100.00
2022-07-29T22:45:06.715Z,100.00
2022-07-29T22:47:48.146Z,100.00
2022-07-29T22:50:21.969Z,100.00
2022-07-29T22:52:54.843Z,100.00
2022-07-29T22:55:27.998Z,100.00
2022-07-29T22:58:00.979Z,100.00
2022-07-29T23:00:34.148Z,100.00
2022-07-29T23:03:08.349Z,100.00
2022-07-29T23:05:41.356Z,100.00
2022-07-29T23:08:14.555Z,100.00
2022-07-29T23:10:47.875Z,100.00
2022-07-29T23:13:20.882Z,100.00
2022-07-29T23:15:54.047Z,100.00
2022-07-29T23:18:28.442Z,100.00
2022-07-29T23:21:01.481Z,100.00
2022-07-29T23:23:34.359Z,100.00
2022-07-29T23:26:07.424Z,100.00
2022-07-29T23:28:40.323Z,100.00
2022-07-29T23:31:13.733Z,100.00
2022-07-29T23:33:48.096Z,100.00
2022-07-29T23:36:21.734Z,100.00
2022-07-29T23:38:57.359Z,100.00
2022-07-29T23:41:31.329Z,100.00
2022-07-29T23:44:04.738Z,100.00
2022-07-29T23:46:37.852Z,100.00
2022-07-29T23:49:13.456Z,100.00
2022-07-29T23:51:48.037Z,100.00
2022-07-29T23:54:20.963Z,100.00
2022-07-29T23:56:54.069Z,100.00
2022-07-29T23:59:27.109Z,100.00
